x

Susquehanna, Md (44057) Weather Station

10:50pm - Wed 4th May 2016 All times are EDT. -4 hours from GMT.

  • Wind
    7mph, 11mph gusts
  • Air Temp 51°f
  • Sea Pressure 1006.7mb
  • Susquehanna, Md
  • Susquehanna, Md

More Historic Weather Station data

Upgrade to MSW Pro to gain access to the past 30 days of data for over 8000 Wavebouys and Weather Stations around the globe.

Join Pro

Comparision Forecast

View Surf forecast
   
Wed 05/04 10:50pm 7 11 mph 1006.7mb - 51f
10:40pm 9 11 mph 1006.7mb - 51f
10:30pm 9 11 mph 1006.7mb - 51f
10:20pm 11 13 mph 1006.7mb - 51f
10:10pm 11 16 mph 1006.7mb - 51f
10:00pm 11 16 mph 1006.8mb 62f 52f
9:50pm 13 16 mph 1006.6mb - 52f
9:40pm 11 16 mph 1006.7mb - 52f
9:30pm 13 18 mph 1007mb - 52f
9:20pm 16 20 mph 1007mb - 53f
9:10pm 13 18 mph 1006.9mb - 53f
9:00pm 13 18 mph 1006.9mb 63f 53f
8:50pm 13 18 mph 1006.9mb - 53f
8:40pm 9 13 mph 1007mb - 53f
8:30pm 11 18 mph 1006.8mb - 53f
8:20pm 7 13 mph 1006.8mb - 53f
8:10pm 7 11 mph 1006.6mb - 53f
8:00pm 9 11 mph 1006.5mb 63f 53f
7:50pm 9 11 mph 1006.3mb - 53f
7:40pm 11 13 mph 1006.1mb - 53f
7:30pm 11 13 mph 1006mb - 53f
7:20pm 9 13 mph 1005.9mb - 53f
7:10pm 9 13 mph 1005.6mb - 53f
7:00pm 9 13 mph 1005.4mb 63f 53f
6:50pm 11 16 mph 1005.4mb - 53f
6:40pm 11 16 mph 1005.4mb - 54f
6:30pm 11 13 mph 1005.4mb - 54f
6:20pm 11 16 mph 1005.3mb - 54f
6:10pm 11 16 mph 1005.3mb - 54f
6:00pm 13 16 mph 1005.4mb 63f 53f
5:50pm 11 13 mph 1005.4mb - 53f
5:40pm 11 16 mph 1005.6mb - 53f
5:30pm 11 16 mph 1005.5mb - 53f
5:20pm 9 13 mph 1005.4mb - 53f
5:10pm 11 13 mph 1005.3mb - 53f
5:00pm 11 13 mph 1005.2mb 63f 53f
4:50pm 9 13 mph 1005.2mb - 53f
4:40pm 9 11 mph 1005.3mb - 53f
4:30pm 9 13 mph 1005.4mb - 53f
4:20pm 9 13 mph 1005.4mb - 53f
4:10pm 9 11 mph 1005.5mb - 53f
4:00pm 9 11 mph 1005.6mb 63f 53f
3:50pm 9 11 mph 1005.6mb - 54f
3:40pm 9 11 mph 1005.7mb - 54f
3:30pm 9 11 mph 1005.6mb - 54f
3:20pm 11 13 mph 1005.6mb - 54f
3:10pm 9 11 mph 1005.7mb - 54f
3:00pm 9 11 mph 1005.8mb 63f 54f
2:50pm 7 9 mph 1005.7mb - 54f
2:40pm 9 13 mph 1005.6mb - 55f
2:30pm 7 11 mph 1005.8mb - 54f
2:20pm 7 9 mph 1005.9mb - 54f
2:10pm 7 9 mph 1006mb - 54f
2:00pm 9 11 mph 1006.1mb 63f 54f
1:50pm 9 11 mph 1006.2mb - 54f
1:40pm 7 11 mph 1006.2mb - 53f
1:30pm 7 9 mph 1006.4mb - 53f
1:20pm 7 11 mph 1006.4mb - 53f
1:10pm 9 11 mph 1006.5mb - 53f
1:00pm 9 11 mph 1006.6mb 63f 53f
12:50pm 9 11 mph 1006.8mb - 53f
12:40pm 7 9 mph 1006.9mb - 53f
12:30pm 9 11 mph 1006.9mb - 53f
12:20pm 9 11 mph 1007mb - 53f
12:10pm 4 9 mph 1007.1mb - 53f
12:00pm 4 9 mph 1007.1mb 64f 53f
11:50am 7 9 mph 1007.2mb - 53f
11:40am 4 7 mph 1007.3mb - 53f
11:30am 7 9 mph 1007.4mb - 53f
11:20am 7 9 mph 1007.4mb - 52f
11:10am 7 9 mph 1007.4mb - 52f
11:00am 7 11 mph 1007.5mb 64f 52f
10:50am 9 13 mph 1007.5mb - 52f
10:40am 9 11 mph 1007.6mb - 52f
10:30am 9 13 mph 1007.6mb - 52f
10:20am 9 13 mph 1007.6mb - 52f
10:10am 9 11 mph 1007.7mb - 52f
10:00am 9 11 mph 1007.5mb 64f 52f
9:50am 11 16 mph 1007.5mb - 52f
9:40am 9 16 mph 1007.6mb - 52f
9:30am 9 13 mph 1007.5mb - 52f
9:20am 11 13 mph 1007.6mb - 52f
9:10am 9 13 mph 1007.6mb - 52f
9:00am 9 13 mph 1007.5mb 64f 52f
8:50am 7 11 mph 1007.5mb - 52f
8:40am 7 11 mph 1007.5mb - 52f
8:30am 7 11 mph 1007.4mb - 52f
8:20am 9 13 mph 1007.4mb - 52f
8:10am 11 13 mph 1007.4mb - 52f
8:00am 11 16 mph 1007.6mb 64f 52f
7:50am 9 13 mph 1008.1mb - 52f
7:40am 9 13 mph 1008.3mb - 52f
7:30am 9 11 mph 1008.2mb - 52f
7:20am 7 11 mph 1008mb - 52f
7:10am 9 13 mph 1007.9mb - 52f
7:00am 9 13 mph 1008mb 63f 52f
6:50am 9 16 mph 1007.9mb - 52f
6:40am 9 16 mph 1007.8mb - 52f
6:30am 9 13 mph 1008mb - 53f
6:20am 9 16 mph 1007.9mb - 52f
6:10am 9 13 mph 1007.7mb - 52f
6:00am 9 13 mph 1007.6mb 63f 52f
5:50am 7 11 mph 1007.7mb - 52f
5:40am 7 9 mph 1007.7mb - 52f
5:30am 7 11 mph 1007.7mb - 52f
5:20am 9 13 mph 1007.8mb - 52f
5:10am 9 11 mph 1007.9mb - 52f
5:00am 11 13 mph 1007.9mb 63f 52f
4:50am 9 13 mph 1008.1mb - 52f
4:40am 9 13 mph 1008.1mb - 52f
4:30am 9 11 mph 1008.1mb - 52f
4:20am 9 13 mph 1008.1mb - 52f
4:10am 9 13 mph 1008.2mb - 53f
4:00am 11 13 mph 1008.4mb 64f 53f
3:50am 11 16 mph 1008.4mb - 53f
3:40am 13 18 mph 1008.4mb - 53f
3:30am 11 16 mph 1008.4mb - 54f
3:20am 11 16 mph 1008.5mb - 54f
3:10am 11 16 mph 1008.5mb - 54f
3:00am 13 16 mph 1008.6mb 64f 54f
2:50am 13 18 mph 1008.6mb - 54f
2:40am 11 13 mph 1009mb - 54f
2:30am 7 11 mph 1009.1mb - 55f
2:20am 7 11 mph 1009.2mb - 55f
2:10am 7 11 mph 1009.3mb - 55f
2:00am 7 9 mph 1009.4mb 64f 55f
1:50am 7 9 mph 1009.4mb - 55f
1:40am 9 13 mph 1009.4mb - 55f
1:30am 9 13 mph 1009.4mb - 55f
1:20am 9 11 mph 1009.4mb - 55f
1:10am 9 11 mph 1009.1mb - 55f
1:00am 9 11 mph 1009.1mb 64f 55f
12:50am 11 13 mph 1009mb - 55f
12:40am 11 16 mph 1008.9mb - 55f
12:30am 11 13 mph 1009mb - 55f
12:20am 11 13 mph 1009.1mb - 55f
12:10am 11 16 mph 1009.3mb - 56f
12:00am 11 16 mph 1009.5mb 64f 56f
Tue 05/03 11:50pm 11 13 mph 1009.5mb - 56f
11:40pm 11 16 mph 1009.6mb - 56f
11:30pm 11 13 mph 1009.6mb - 56f
11:20pm 11 16 mph 1009.6mb - 57f
11:10pm 11 16 mph 1009.5mb - 57f
11:00pm 11 16 mph 1009.5mb 64f 57f
10:50pm 11 13 mph 1009.5mb - 57f
10:40pm 11 13 mph 1009.4mb - 57f
10:30pm 11 16 mph 1009.4mb - 57f
10:20pm 13 18 mph 1009.5mb - 57f
10:10pm 13 18 mph 1009.7mb - 58f
10:00pm 11 18 mph 1009.6mb 64f 58f
9:50pm 9 16 mph 1009.4mb - 58f
9:40pm 11 16 mph 1009.4mb - 58f
9:30pm 11 13 mph 1009.5mb - 58f
9:20pm 11 13 mph 1009.5mb - 58f
9:10pm 9 11 mph 1009.4mb - 58f
9:00pm 9 11 mph 1009.4mb 64f 58f
8:50pm 9 11 mph 1009.4mb - 58f
8:40pm 11 13 mph 1009.3mb - 58f
8:30pm 11 13 mph 1009.5mb - 58f
8:20pm 11 13 mph 1009.6mb - 58f
8:10pm 11 16 mph 1009.5mb - 59f
8:00pm 11 16 mph 1009.4mb 64f 59f
7:50pm 9 11 mph 1009.3mb - 59f
7:40pm 9 11 mph 1009mb - 59f
7:30pm 11 13 mph 1008.9mb - 59f
7:20pm 11 13 mph 1008.9mb - 59f
7:10pm 9 13 mph 1008.8mb - 59f
7:00pm 11 16 mph 1008.7mb 64f 59f
6:50pm 11 13 mph 1008.7mb - 59f
6:40pm 13 16 mph 1008.8mb - 59f
6:30pm 13
mph
1009mb - 59f
6:20pm 11 16 mph 1009.3mb - 60f
6:10pm 9 11 mph 1009.4mb - 60f
6:00pm 11 13 mph 1009.2mb 64f 60f
5:50pm 9 11 mph 1009.1mb - 60f
5:40pm 9 13 mph 1008.9mb - 60f
5:30pm 11 13 mph 1008.9mb - 60f
5:20pm 11 16 mph 1008.8mb - 60f
5:10pm 9 11 mph 1008.7mb - 61f
5:00pm 9 11 mph 1008.8mb 64f 60f
4:50pm 9 13 mph 1008.8mb - 60f
4:40pm 7 9 mph 1008.9mb - 61f
4:30pm 7 9 mph 1008.8mb - 61f
4:20pm 7 9 mph 1008.8mb - 61f
4:10pm 2 4 mph 1008.9mb - 61f
4:00pm 4 7 mph 1009mb 64f 61f
3:50pm 4 9 mph 1009.1mb - 60f
3:40pm 7 9 mph 1009.2mb - 60f
3:30pm 7 9 mph 1009.2mb - 60f
3:20pm 7 9 mph 1009.2mb - 60f
3:10pm 2 4 mph 1009.1mb - 60f
3:00pm 4 7 mph 1009.2mb 64f 60f
2:50pm 7 9 mph 1009.3mb - 59f
2:40pm 9 11 mph 1009.3mb - 60f
2:30pm 7 11 mph 1009.2mb - 60f
2:20pm 7 9 mph 1009.3mb - 60f
2:10pm 7 9 mph 1009.4mb - 59f
2:00pm 4 9 mph 1009.4mb 64f 59f
1:50pm 9 11 mph 1009.2mb - 59f
1:40pm 7 9 mph 1009.2mb - 59f
1:30pm 7 9 mph 1009.5mb - 59f
1:20pm 7 11 mph 1009.4mb - 59f
1:10pm 7 11 mph 1009.2mb - 59f
1:00pm 9 13 mph 1009mb 64f 59f
12:50pm 7 11 mph 1009.2mb - 59f
12:40pm 9 13 mph 1009.3mb - 58f
12:30pm 9 11 mph 1009.5mb - 59f
12:20pm 7 9 mph 1009.8mb - 59f
12:10pm 7 9 mph 1009.9mb - 59f
12:00pm 7 9 mph 1009.9mb 64f 59f
11:50am 7 9 mph 1009.9mb - 58f
11:40am 7 9 mph 1009.9mb - 58f
11:30am 7 9 mph 1010mb - 58f
11:20am 7 9 mph 1009.9mb - 58f
11:10am 7 9 mph 1009.8mb - 58f
11:00am 7 9 mph 1009.8mb 64f 58f
10:50am 4 7 mph 1009.8mb - 58f
10:40am 4
mph
1009.7mb - 58f
10:30am 4 7 mph 1009.7mb - 58f
10:20am 7 9 mph 1009.6mb - 58f
10:10am 7 11 mph 1009.5mb - 58f
10:00am 9 13 mph 1009.4mb 63f 58f
9:50am 9 11 mph 1009.3mb - 58f
9:40am 9 11 mph 1009.1mb - 58f
9:30am 9
mph
1009.1mb - 58f
9:20am 7 11 mph 1009.1mb - 58f
9:10am 7 9 mph 1009mb - 58f
9:00am 7 11 mph 1009mb 63f 58f
8:50am 9 11 mph 1009mb - 58f
8:40am 7 9 mph 1009mb - 58f
8:30am 4 7 mph 1009.2mb - 58f
8:20am 7 9 mph 1009.3mb - 58f
8:10am 7 9 mph 1009.3mb - 58f
8:00am 7 9 mph 1009.3mb 63f 58f
7:50am 7 11 mph 1009.4mb - 58f
7:40am 7 9 mph 1009.3mb - 58f
7:30am 7 9 mph 1009.4mb - 58f
7:20am 7 9 mph 1009.4mb - 58f
7:10am 4 9 mph 1009.5mb - 58f
7:00am 7 9 mph 1009.5mb 62f 58f
6:50am 4 9 mph 1009.5mb - 58f
6:40am 7 9 mph 1009.4mb - 58f
6:30am 7 9 mph 1009.2mb - 58f
6:20am 7 9 mph 1009.1mb - 58f
6:10am 7 11 mph 1009.1mb - 58f
6:00am 9 11 mph 1009mb 62f 58f
5:50am 9
mph
1009.1mb - 58f
5:40am 9 11 mph 1009mb - 58f
5:30am 9 11 mph 1009.1mb - 58f
5:20am 7 9 mph 1009.1mb - 58f
5:10am 7 9 mph 1009.1mb - 58f
5:00am 7 9 mph 1009.2mb 62f 58f
4:50am 7 11 mph 1009.2mb - 58f
4:40am 4 7 mph 1009.5mb - 58f
4:30am 4 7 mph 1009.7mb - 58f
4:20am 7
mph
1009.9mb - 59f
4:10am 4 7 mph 1010mb - 59f
4:00am 4 7 mph 1010.1mb 63f 59f
3:50am 4 7 mph 1010mb - 59f
3:40am 7
mph
1010mb - 59f
3:30am 7 9 mph 1010.1mb - 59f
3:20am 4 7 mph 1010.1mb - 60f
3:10am 7 11 mph 1010mb - 60f
3:00am 7 9 mph 1010mb 63f 60f
2:50am 7 11 mph 1010mb - 60f
2:40am 7 9 mph 1010.1mb - 60f
2:30am 4 7 mph 1010.2mb - 60f
2:20am 4 7 mph 1010.4mb - 60f
2:10am 4 7 mph 1010.5mb - 60f
2:00am 7 11 mph 1010.5mb 63f 60f
1:50am 7 9 mph 1010.5mb - 60f
1:40am 7 9 mph 1010.5mb - 60f
1:30am 7 9 mph 1010.6mb - 60f
1:20am 4 9 mph 1010.9mb - 60f
1:10am 4 9 mph 1011.1mb - 60f
1:00am 7 9 mph 1011.5mb 63f 60f
12:50am 7 9 mph 1011.8mb - 61f
12:40am 9 11 mph 1012.2mb - 61f
12:30am 9 11 mph 1012.2mb - 61f
12:20am 7 13 mph 1012mb - 60f
12:10am 11 13 mph 1012mb - 61f
12:00am 13 18 mph 1011.9mb 63f 61f
Mon 05/02 11:50pm 11 13 mph 1012mb - 61f
11:40pm 9 13 mph 1011.9mb - 60f
11:30pm 7 11 mph 1012.1mb - 60f
11:20pm 9 16 mph 1012mb - 61f
11:10pm 11 18 mph 1012.2mb - 61f
11:00pm 11 13 mph 1012.6mb 63f 61f
10:50pm 7 9 mph 1012.9mb - 61f
10:40pm 9 11 mph 1013.1mb - 61f
10:30pm 4 7 mph 1012.7mb - 61f
10:20pm 4 7 mph 1012.7mb - 62f
10:10pm 7
mph
1012.5mb - 62f
10:00pm 2 7 mph 1012.5mb 63f 62f
9:50pm 9 13 mph 1012.1mb - 62f
9:40pm 13 18 mph 1012mb - 63f
9:30pm 9 13 mph 1012mb - 63f
9:20pm 13 16 mph 1011.5mb - 63f
9:10pm 13 18 mph 1011.7mb - 64f
9:00pm 13 18 mph 1011.7mb 63f 64f
8:50pm 11 13 mph 1011.9mb - 64f
8:40pm 13 16 mph 1011.7mb - 64f
8:30pm 11 13 mph 1011.6mb - 65f
8:20pm 9 13 mph 1011.4mb - 65f
8:10pm 9 11 mph 1011.3mb - 65f
8:00pm 7 9 mph 1011.6mb 63f 66f
7:50pm 7 9 mph 1011.6mb - 66f
7:40pm 4 7 mph 1011.7mb - 66f
7:30pm 4 7 mph 1011.7mb - 66f
7:20pm 4
mph
1011.5mb - 66f
7:10pm 4
mph
1011.5mb - 65f
7:00pm 4
mph
1011.5mb 63f 65f
6:50pm 2 4 mph 1011.4mb - 65f
6:40pm 2 4 mph 1011.4mb - 65f
6:30pm 4
mph
1011.3mb - 64f
6:20pm 4
mph
1011.6mb - 64f
6:10pm 2 4 mph 1011.7mb - 64f
6:00pm 2 4 mph 1011.8mb 63f 64f
5:50pm 4 7 mph 1011.8mb - 64f
5:40pm 4 7 mph 1011.7mb - 63f
5:30pm 4 7 mph 1011.8mb - 63f
5:20pm 4 7 mph 1012mb - 63f
5:10pm 4 7 mph 1012.1mb - 62f
5:00pm 4 7 mph 1012.1mb 64f 62f
4:50pm 4 7 mph 1012.2mb - 62f
4:40pm 4 7 mph 1012.3mb - 61f
4:30pm 7
mph
1012.4mb - 61f
4:20pm 4 7 mph 1012.4mb - 61f
4:10pm 4 7 mph 1012.6mb - 61f
4:00pm 4
mph
1012.7mb 63f 60f
3:50pm 4 7 mph 1012.7mb - 60f
3:40pm 7
mph
1012.8mb - 59f
3:30pm 7
mph
1013mb - 59f
3:20pm 7 9 mph 1013mb - 59f
3:10pm 7 9 mph 1013.1mb - 59f
3:00pm 7 9 mph 1013.2mb 63f 58f
2:50pm 7 9 mph 1013.3mb - 58f
2:40pm 7
mph
1013.3mb - 58f
2:30pm 7
mph
1013.4mb - 57f
2:20pm 4 7 mph 1013.8mb - 57f
2:10pm 4
mph
1013.8mb - 57f
2:00pm 4 7 mph 1013.8mb 62f 57f
1:50pm 2 4 mph 1013.9mb - 57f
1:40pm 2
mph
1013.9mb - 57f
1:30pm  -  2 mph 1013.8mb - 57f
1:20pm 2 4 mph 1013.8mb - 56f
1:10pm 2 4 mph 1013.9mb - 56f
1:00pm 2 4 mph 1014mb 62f 56f
12:50pm 4 7 mph 1014mb - 56f
12:40pm 4 7 mph 1014.2mb - 55f
12:30pm 4 7 mph 1014.2mb - 55f
12:20pm 4 7 mph 1014.3mb - 55f
12:10pm 4 9 mph 1014.2mb - 55f
12:00pm 7 9 mph 1014.5mb 62f 55f
11:50am 7 9 mph 1014.7mb - 54f
11:40am 4 9 mph 1014.8mb - 54f
11:30am 7 9 mph 1014.8mb - 54f
11:20am 7 11 mph 1014.7mb - 53f
11:10am 7 9 mph 1014.9mb - 53f
11:00am 7 11 mph 1014.9mb 62f 53f
10:50am 7 9 mph 1015.1mb - 53f
10:40am 7 9 mph 1015.1mb - 53f
10:30am 7 11 mph 1015mb - 53f
10:20am 9 11 mph 1014.9mb - 53f
10:10am 9 11 mph 1014.8mb - 52f
10:00am 9 11 mph 1014.8mb 62f 52f
9:50am 9 11 mph 1015.2mb - 52f
9:40am 9 11 mph 1015.6mb - 52f
9:30am 7 9 mph 1015.8mb - 52f
9:20am 9 11 mph 1015.6mb - 52f
9:10am 11 13 mph 1015.5mb - 52f
9:00am 9 11 mph 1015.7mb 62f 52f
8:50am 7 11 mph 1016mb - 51f
8:40am 4 7 mph 1016.3mb - 51f
8:30am 4 7 mph 1016.4mb - 51f
8:20am 2 7 mph 1016.8mb - 51f
8:10am 4 7 mph 1016.6mb - 51f
8:00am 7 9 mph 1016.1mb 62f 51f
7:50am 9 11 mph 1015.8mb - 51f
7:40am 9 13 mph 1015.6mb - 51f
7:30am 9 13 mph 1015.6mb - 51f
7:20am 9 13 mph 1015.4mb - 51f
7:10am 11 13 mph 1015.2mb - 51f
7:00am 9 13 mph 1015.7mb 62f 51f
6:50am 9 13 mph 1015.7mb - 51f
6:40am 9 16 mph 1015.6mb - 51f
6:30am 9 13 mph 1015.7mb - 51f
6:20am 9 13 mph 1015.5mb - 51f
6:10am 9 11 mph 1015.5mb - 51f
6:00am 9 13 mph 1015.5mb 63f 52f
5:50am 11 13 mph 1015.4mb - 52f
5:40am 11 13 mph 1015.3mb - 52f
5:30am 9 13 mph 1015.4mb - 52f
5:20am 11 16 mph 1015.1mb - 52f
5:10am 11 16 mph 1014.8mb - 52f
5:00am 9 13 mph 1014.9mb 62f 52f
4:50am 9 13 mph 1015mb - 52f
4:40am 9 13 mph 1015.2mb - 52f
4:30am 9 13 mph 1015.4mb - 52f
4:20am 11 13 mph 1015.1mb - 52f
4:10am 13 16 mph 1014.6mb - 53f
4:00am 13 16 mph 1014.9mb 62f 53f
3:50am 11 16 mph 1015.5mb - 53f
3:40am 11 16 mph 1015.5mb - 53f
3:30am 13 18 mph 1015.8mb - 53f
3:20am 9 11 mph 1016.1mb - 53f
3:10am 9 11 mph 1016.4mb - 53f
3:00am 7 9 mph 1016.3mb 62f 53f
2:50am 9 11 mph 1016.1mb - 53f
2:40am 9 11 mph 1016.1mb - 53f
2:30am 9 11 mph 1016.3mb - 53f
2:20am 11 13 mph 1016.2mb - 53f
2:10am 9 13 mph 1016.6mb - 53f
2:00am 9 11 mph 1016.6mb 62f 53f
1:50am 9 16 mph 1016.3mb - 53f
1:40am 13 16 mph 1015.9mb - 53f
1:30am 11 16 mph 1016.6mb - 53f
1:20am 11 13 mph 1016.6mb - 53f
1:10am 9 11 mph 1016.8mb - 53f
1:00am 7 9 mph 1017.1mb 62f 53f
12:50am 7 9 mph 1017.4mb - 53f
12:40am 4 7 mph 1017.7mb - 53f
12:30am 4 7 mph 1017.9mb - 53f
12:20am 4 9 mph 1017.9mb - 54f
12:10am 7 9 mph 1017.6mb - 54f
12:00am 7 9 mph 1017.8mb 63f 54f
Sun 05/01 11:50pm 7 9 mph 1017.8mb - 54f
11:40pm 9 11 mph 1017.5mb - 54f
11:30pm 9 11 mph 1017.6mb - 54f
11:20pm 7 11 mph 1017.7mb - 54f
11:10pm 7 9 mph 1017.9mb - 54f
11:00pm 7 9 mph 1017.9mb 63f 54f
10:50pm 7 11 mph 1017.9mb - 54f
10:40pm 7 9 mph 1017.9mb - 54f
10:30pm 9 11 mph 1017.9mb - 54f
10:20pm 9 11 mph 1017.8mb - 54f
10:10pm 9 11 mph 1017.9mb - 54f
10:00pm 7 9 mph 1018mb 63f 54f
9:50pm 7 9 mph 1017.9mb - 54f
9:40pm 7 9 mph 1017.9mb - 54f
9:30pm 7 11 mph 1017.9mb - 54f
9:20pm 4 7 mph 1018.3mb - 54f
9:10pm 4 7 mph 1018.5mb - 54f
9:00pm 7 9 mph 1018.3mb 63f 54f
8:50pm 4 9 mph 1018.3mb - 54f
8:40pm 7 9 mph 1018.2mb - 54f
8:30pm 7 9 mph 1018.1mb - 54f
8:20pm 7 9 mph 1017.8mb - 54f
8:10pm 7 9 mph 1017.7mb - 54f
8:00pm 7 9 mph 1017.8mb 63f 54f
7:50pm 7 9 mph 1017.6mb - 54f
7:40pm 7 9 mph 1017.7mb - 54f
7:30pm 9 11 mph 1017.6mb - 54f
7:20pm 7 9 mph 1017.6mb - 54f
7:10pm 7 11 mph 1017.6mb - 54f
7:00pm 9 11 mph 1017.4mb 63f 54f
6:50pm 9 11 mph 1017.3mb - 54f
6:40pm 9 11 mph 1017.4mb - 54f
6:30pm 9 11 mph 1017.4mb - 54f
6:20pm 7 11 mph 1017.5mb - 54f
6:10pm 7 9 mph 1017.8mb - 54f
6:00pm 7 9 mph 1017.6mb 63f 54f
5:50pm 7 9 mph 1017.7mb - 54f
5:40pm 9 11 mph 1017.7mb - 54f
5:30pm 9 11 mph 1017.7mb - 54f
5:20pm 9 13 mph 1017.5mb - 54f
5:10pm 11 13 mph 1017.3mb - 54f
5:00pm 11 13 mph 1017.5mb 63f 54f
4:50pm 9 11 mph 1017.6mb - 54f
4:40pm 11 13 mph 1017.9mb - 54f
4:30pm 11 16 mph 1018mb - 54f
4:20pm 9 13 mph 1018.2mb - 54f
4:10pm 9 11 mph 1018.2mb - 54f
4:00pm 9 11 mph 1018.6mb 63f 54f
3:50pm 9 11 mph 1018.6mb - 54f
3:40pm 9 11 mph 1018.8mb - 54f
3:30pm 9 13 mph 1018.9mb - 54f
3:20pm 11 13 mph 1019mb - 54f
3:10pm 9 13 mph 1019.2mb - 54f
3:00pm 11 16 mph 1019.3mb 63f 54f
2:50pm 11 13 mph 1019.4mb - 53f
2:40pm 11 13 mph 1019.4mb - 53f
2:30pm 13 16 mph 1019.4mb - 53f
2:20pm 13 16 mph 1019.4mb - 54f
2:10pm 11 13 mph 1019.5mb - 54f
2:00pm 11 13 mph 1019.7mb 63f 53f
1:50pm 11 13 mph 1019.7mb - 53f
1:40pm 9 13 mph 1019.8mb - 53f
1:30pm 11 16 mph 1019.7mb - 53f
1:20pm 13 16 mph 1019.6mb - 53f
1:10pm 11 16 mph 1019.9mb - 53f
1:00pm 13 18 mph 1019.7mb 63f 53f
12:50pm 16 18 mph 1019.7mb - 53f
12:40pm 13 18 mph 1019.7mb - 53f
12:30pm 16 18 mph 1019.8mb - 53f
12:20pm 16 20 mph 1019.7mb - 53f
12:10pm 16 20 mph 1019.6mb - 52f
12:00pm 13 18 mph 1020.1mb 63f 52f
11:50am 13 16 mph 1020.3mb - 52f
11:40am 11 16 mph 1020.5mb - 52f
11:30am 11 16 mph 1020.6mb - 51f
11:20am 13 16 mph 1020.8mb - 51f
11:10am 11 16 mph 1020.9mb - 51f
11:00am 11 16 mph 1021mb 63f 51f
10:50am 13 16 mph 1021.1mb - 51f
10:40am 13 18 mph 1021.3mb - 51f
10:30am 16 20 mph 1021.5mb - 51f
10:20am 16 18 mph 1021.3mb - 51f
10:10am 16 18 mph 1021.4mb - 50f
10:00am 16 20 mph 1021.5mb 63f 50f
9:50am 13 18 mph 1021.7mb - 50f
9:40am 16 20 mph 1021.6mb - 50f
9:30am 16 20 mph 1021.7mb - 50f
9:20am 16 20 mph 1021.8mb - 50f
9:10am 18 22 mph 1021.8mb - 50f
9:00am 16 22 mph 1021.6mb 63f 50f
8:50am 18 22 mph 1021.4mb - 50f
8:40am 16 20 mph 1021.4mb - 50f
8:30am 16 20 mph 1021.5mb - 50f
8:20am 16 20 mph 1021.8mb - 49f
8:10am 16 20 mph 1021.9mb - 49f
8:00am 13 18 mph 1022mb 63f 49f
7:50am 13 18 mph 1021.9mb - 49f
7:40am 16 20 mph 1021.8mb - 49f
7:30am 13 18 mph 1021.8mb - 49f
7:20am 13 16 mph 1021.9mb - 49f
7:10am 16 18 mph 1022mb - 49f
7:00am 16 18 mph 1022mb 63f 48f
6:50am 11 16 mph 1021.9mb - 49f
6:40am 11 16 mph 1021.8mb - 49f
6:30am 11 16 mph 1021.7mb - 49f
6:20am 13 16 mph 1021.7mb - 49f
6:10am 13 16 mph 1021.7mb - 49f
6:00am 11 16 mph 1021.6mb 64f 50f
5:50am 11 13 mph 1021.6mb - 50f
5:40am 11 13 mph 1021.7mb - 50f
5:30am 11 13 mph 1021.8mb - 50f
5:20am 11 13 mph 1021.9mb - 50f
5:10am 11 16 mph 1021.8mb - 50f
5:00am 11 18 mph 1021.8mb 64f 51f
4:50am 13 16 mph 1021.8mb - 51f
4:40am 11 16 mph 1021.8mb - 51f
4:30am 11 16 mph 1021.8mb - 51f
4:20am 11 16 mph 1021.8mb - 51f
4:10am 13 16 mph 1021.8mb - 52f
4:00am 11 16 mph 1021.8mb 64f 52f